Time;durP1;ratioP1;P1;durP2;ratioP2;P2;SDS_P1;SDS_P2;PMS_P1;PMS_P2;Temp;Humidity;BMP_temperature;BMP_pressure;BME280_temperature;BME280_humidity;BME280_pressure;Samples;Min_cycle;Max_cycle;Signal;HPM_P1;HPM_P2
2023/03/10 00:02:25;;;;;;;;;;;;;;;10.85;99.75;98940.47;5110312;28;1273;-66
2023/03/10 00:04:52;;;;;;;;;;;;;;;10.81;99.90;98955.13;5110240;28;1889;-66
2023/03/10 00:07:19;;;;;;;;;;;;;;;10.73;100.00;98953.72;5111722;28;863;-67
2023/03/10 00:09:45;;;;;;;;;;;;;;;10.66;100.00;98961.38;5111717;28;1350;-67
2023/03/10 00:12:12;;;;;;;;;;;;;;;10.55;100.00;98961.56;5111735;28;855;-66
2023/03/10 00:14:38;;;;;;;;;;;;;;;10.43;100.00;98962.94;5111812;28;848;-67
2023/03/10 00:17:05;;;;;;;;;;;;;;;10.28;100.00;98961.59;5112045;28;898;-67
2023/03/10 00:19:32;;;;;;;;;;;;;;;10.18;100.00;98966.91;5111863;28;937;-68
2023/03/10 00:21:58;;;;;;;;;;;;;;;10.11;100.00;98971.75;5111667;28;807;-65
2023/03/10 00:24:25;;;;;;;;;;;;;;;10.01;100.00;98974.28;5110493;28;898;-66
2023/03/10 00:26:50;;;;;;;;;;;;;;;9.88;100.00;98965.03;5111558;28;1977;-66
2023/03/10 00:29:17;;;;;;;;;;;;;;;9.86;100.00;98961.91;5110057;28;1190;-66
2023/03/10 00:31:44;;;;;;;;;;;;;;;9.87;100.00;98955.16;5111327;28;898;-67
2023/03/10 00:34:11;;;;;;;;;;;;;;;9.90;100.00;98953.53;5111605;28;906;-68
2023/03/10 00:36:39;;;;;;;;;;;;;;;9.87;100.00;98951.63;5109996;28;1293;-67
2023/03/10 00:39:06;;;;;;;;;;;;;;;9.87;100.00;98951.63;5111356;28;847;-66
2023/03/10 00:41:35;;;;;;;;;;;;;;;9.85;100.00;98952.03;5112657;28;863;-67
2023/03/10 00:44:02;;;;;;;;;;;;;;;9.93;100.00;98939.69;5115410;28;838;-68
2023/03/10 00:46:31;;;;;;;;;;;;;;;10.04;100.00;98944.28;5115051;28;1913;-66
2023/03/10 00:48:58;;;;;;;;;;;;;;;9.99;100.00;98948.28;5114813;28;858;-66
2023/03/10 00:51:24;;;;;;;;;;;;;;;10.02;100.00;98948.22;5114809;27;855;-66
2023/03/10 00:53:51;;;;;;;;;;;;;;;10.10;100.00;98937.84;5114688;28;1023;-66
2023/03/10 00:56:19;;;;;;;;;;;;;;;10.14;100.00;98938.56;5113619;28;1567;-69
2023/03/10 00:58:46;;;;;;;;;;;;;;;10.17;100.00;98939.69;5114642;28;889;-68
2023/03/10 01:01:15;;;;;;;;;;;;;;;10.12;100.00;98931.91;5114658;28;826;-68
2023/03/10 01:03:42;;;;;;;;;;;;;;;10.07;100.00;98933.16;5114524;28;846;-68
2023/03/10 01:06:09;;;;;;;;;;;;;;;10.11;100.00;98938.63;5114515;28;1956;-68
2023/03/10 01:08:35;;;;;;;;;;;;;;;10.01;100.00;98924.59;5114802;28;887;-68
2023/03/10 01:11:02;;;;;;;;;;;;;;;9.96;100.00;98932.53;5114147;28;1267;-67
2023/03/10 01:13:28;;;;;;;;;;;;;;;9.92;100.00;98929.88;5113040;28;868;-66
2023/03/10 01:15:55;;;;;;;;;;;;;;;9.84;100.00;98916.59;5114367;28;831;-66
2023/03/10 01:18:21;;;;;;;;;;;;;;;9.81;100.00;98926.47;5114366;27;875;-67
2023/03/10 01:20:48;;;;;;;;;;;;;;;9.81;100.00;98920.97;5114368;28;855;-67
2023/03/10 01:23:16;;;;;;;;;;;;;;;9.82;100.00;98925.28;5114421;28;895;-68
2023/03/10 01:25:43;;;;;;;;;;;;;;;9.71;100.00;98932.97;5114019;27;1905;-66
2023/03/10 01:28:09;;;;;;;;;;;;;;;9.63;100.00;98931.50;5114027;28;823;-68
2023/03/10 01:30:37;;;;;;;;;;;;;;;9.56;100.00;98930.41;5114037;28;906;-65
2023/03/10 01:33:04;;;;;;;;;;;;;;;9.55;100.00;98919.78;5112665;28;1168;-66
2023/03/10 01:35:30;;;;;;;;;;;;;;;9.49;100.00;98913.94;5114213;28;854;-68
2023/03/10 01:37:57;;;;;;;;;;;;;;;9.27;100.00;98883.16;5113981;28;815;-66
2023/03/10 01:40:25;;;;;;;;;;;;;;;9.34;100.00;98921.66;5114364;28;866;-66
2023/03/10 01:43:12;;;;;;;;;;;;;;;9.23;100.00;98920.25;5113725;28;893;-66
2023/03/10 01:45:38;;;;;;;;;;;;;;;9.25;100.00;98912.34;5113834;28;1960;-66
2023/03/10 01:48:05;;;;;;;;;;;;;;;9.31;100.00;98913.44;5113900;28;811;-65
2023/03/10 01:50:31;;;;;;;;;;;;;;;9.28;100.00;98912.31;5112510;28;1480;-67
2023/03/10 01:52:58;;;;;;;;;;;;;;;9.19;100.00;98915.53;5114211;28;862;-67
2023/03/10 01:55:29;;;;;;;;;;;;;;;9.13;100.00;98902.63;5113561;28;903;-65
2023/03/10 01:57:57;;;;;;;;;;;;;;;9.08;100.00;98906.66;5113577;27;819;-66
2023/03/10 02:00:25;;;;;;;;;;;;;;;9.07;100.00;98912.56;5113545;28;866;-65
2023/03/10 02:02:59;;;;;;;;;;;;;;;9.16;100.00;98923.88;5113354;28;901;-66
2023/03/10 02:05:27;;;;;;;;;;;;;;;9.20;100.00;98924.63;5113263;28;1894;-68
2023/03/10 02:07:54;;;;;;;;;;;;;;;9.13;100.00;98922.75;5113234;28;904;-66
2023/03/10 02:10:20;;;;;;;;;;;;;;;9.06;100.00;98925.56;5112974;28;1395;-66
2023/03/10 02:12:48;;;;;;;;;;;;;;;9.07;100.00;98920.84;5113149;28;831;-66
2023/03/10 02:15:15;;;;;;;;;;;;;;;9.09;100.00;98935.78;5113157;28;886;-66
2023/03/10 02:17:41;;;;;;;;;;;;;;;9.06;100.00;98933.84;5112967;28;925;-66
2023/03/10 02:20:23;;;;;;;;;;;;;;;9.09;100.00;98935.00;5113003;28;922;-66
2023/03/10 02:22:50;;;;;;;;;;;;;;;9.00;100.00;98929.97;5113203;28;886;-66
2023/03/10 02:25:22;;;;;;;;;;;;;;;8.83;100.00;98929.00;5112875;28;1933;-66
2023/03/10 02:27:49;;;;;;;;;;;;;;;8.79;100.00;98920.03;5113019;28;823;-66
2023/03/10 02:30:21;;;;;;;;;;;;;;;8.75;100.00;98927.53;5112764;28;855;-66
2023/03/10 02:32:51;;;;;;;;;;;;;;;8.68;100.00;98922.88;5112826;28;815;-66
2023/03/10 02:35:18;;;;;;;;;;;;;;;8.73;100.00;98922.44;5112690;28;830;-66
2023/03/10 02:37:44;;;;;;;;;;;;;;;8.91;100.00;98924.97;5112718;28;909;-66
2023/03/10 02:40:31;;;;;;;;;;;;;;;9.14;100.00;98934.53;5112616;28;879;-66
2023/03/10 02:42:59;;;;;;;;;;;;;;;9.15;100.00;98945.16;5112616;28;847;-68
2023/03/10 02:45:28;;;;;;;;;;;;;;;8.93;100.00;98946.63;5112407;28;1895;-66
2023/03/10 02:47:55;;;;;;;;;;;;;;;8.73;100.00;98961.00;5113201;28;776;-66
2023/03/10 02:50:21;;;;;;;;;;;;;;;8.47;100.00;98954.22;5113070;28;811;-66
2023/03/10 02:52:52;;;;;;;;;;;;;;;8.35;100.00;98949.19;5111010;28;1369;-66
2023/03/10 02:55:19;;;;;;;;;;;;;;;8.29;100.00;98950.81;5112519;28;886;-66
2023/03/10 02:57:45;;;;;;;;;;;;;;;8.25;100.00;98945.31;5111081;28;1166;-67
2023/03/10 03:00:12;;;;;;;;;;;;;;;8.23;100.00;98944.94;5112465;28;898;-66
2023/03/10 03:02:39;;;;;;;;;;;;;;;8.14;100.00;98950.16;5111215;28;891;-69
2023/03/10 03:05:06;;;;;;;;;;;;;;;7.92;100.00;98949.56;5110607;28;1901;-68
2023/03/10 03:07:32;;;;;;;;;;;;;;;8.05;100.00;98942.38;5112343;28;1071;-66
2023/03/10 03:09:59;;;;;;;;;;;;;;;8.30;100.00;98942.16;5112556;28;1386;-66
2023/03/10 03:12:25;;;;;;;;;;;;;;;8.42;100.00;98940.09;5111302;28;1336;-66
2023/03/10 03:14:51;;;;;;;;;;;;;;;8.48;100.00;98938.47;5112766;28;826;-67
2023/03/10 03:17:18;;;;;;;;;;;;;;;8.69;100.00;98949.25;5112037;28;890;-67
2023/03/10 03:19:44;;;;;;;;;;;;;;;9.05;100.00;98940.56;5112075;28;925;-68
2023/03/10 03:22:11;;;;;;;;;;;;;;;9.62;100.00;98938.97;5111907;28;831;-66
2023/03/10 03:24:37;;;;;;;;;;;;;;;9.92;100.00;98945.63;5111963;28;886;-68
2023/03/10 03:27:04;;;;;;;;;;;;;;;9.60;100.00;98938.63;5112091;28;1967;-69
2023/03/10 03:29:30;;;;;;;;;;;;;;;9.07;100.00;98943.69;5112194;28;819;-66
2023/03/10 03:31:57;;;;;;;;;;;;;;;8.81;100.00;98950.69;5112322;28;827;-66
2023/03/10 03:34:23;;;;;;;;;;;;;;;8.53;100.00;98949.00;5111874;28;866;-66
2023/03/10 03:36:50;;;;;;;;;;;;;;;8.29;100.00;98948.06;5111933;28;878;-68
2023/03/10 03:39:17;;;;;;;;;;;;;;;8.11;100.00;98951.75;5111996;28;827;-68
2023/03/10 03:41:44;;;;;;;;;;;;;;;7.96;100.00;98961.31;5112056;28;831;-67
2023/03/10 03:44:10;;;;;;;;;;;;;;;7.90;100.00;98966.47;5111847;28;874;-68
2023/03/10 03:46:37;;;;;;;;;;;;;;;7.78;100.00;98973.22;5111704;28;1963;-66
2023/03/10 03:49:03;;;;;;;;;;;;;;;7.68;100.00;98976.84;5111735;28;870;-66
2023/03/10 03:51:30;;;;;;;;;;;;;;;7.62;100.00;98980.38;5111686;28;823;-66
2023/03/10 03:53:56;;;;;;;;;;;;;;;7.68;100.00;98973.28;5111722;28;835;-68
2023/03/10 03:56:23;;;;;;;;;;;;;;;7.80;100.00;98966.53;5111621;28;839;-68
2023/03/10 03:58:49;;;;;;;;;;;;;;;7.89;100.00;98969.59;5111757;28;1035;-68
2023/03/10 04:01:16;;;;;;;;;;;;;;;8.09;100.00;98967.13;5111630;28;917;-68
2023/03/10 04:03:43;;;;;;;;;;;;;;;8.13;100.00;98965.13;5110363;28;1274;-68
2023/03/10 04:06:10;;;;;;;;;;;;;;;8.17;100.00;98963.88;5111469;28;1954;-68
2023/03/10 04:08:36;;;;;;;;;;;;;;;8.10;100.00;98963.16;5111807;28;989;-66
2023/03/10 04:11:03;;;;;;;;;;;;;;;8.05;100.00;98960.84;5111344;28;1427;-66
2023/03/10 04:13:29;;;;;;;;;;;;;;;8.08;100.00;98968.28;5111525;28;867;-68
2023/03/10 04:15:57;;;;;;;;;;;;;;;8.04;100.00;98968.31;5113685;28;874;-67
2023/03/10 04:18:24;;;;;;;;;;;;;;;8.18;100.00;98964.66;5115570;27;862;-68
2023/03/10 04:20:50;;;;;;;;;;;;;;;8.30;100.00;98969.69;5115526;28;870;-66
2023/03/10 04:23:17;;;;;;;;;;;;;;;8.16;100.00;98973.31;5115361;28;910;-68
2023/03/10 04:25:43;;;;;;;;;;;;;;;8.01;100.00;98971.88;5115269;28;1910;-66
2023/03/10 04:28:10;;;;;;;;;;;;;;;7.88;100.00;98973.56;5115325;28;866;-66
2023/03/10 04:30:37;;;;;;;;;;;;;;;7.75;100.00;98978.75;5115344;28;950;-66
2023/03/10 04:33:04;;;;;;;;;;;;;;;7.70;100.00;98974.47;5115164;28;827;-65
2023/03/10 04:35:31;;;;;;;;;;;;;;;7.69;100.00;98988.63;5115143;28;823;-68
2023/03/10 04:37:57;;;;;;;;;;;;;;;7.64;100.00;98989.81;5114980;28;886;-66
2023/03/10 04:40:24;;;;;;;;;;;;;;;7.57;100.00;98976.91;5115135;28;851;-65
2023/03/10 04:42:50;;;;;;;;;;;;;;;7.70;100.00;98984.66;5114933;28;901;-66
2023/03/10 04:45:16;;;;;;;;;;;;;;;7.72;100.00;98983.09;5115044;28;1952;-66
2023/03/10 04:47:43;;;;;;;;;;;;;;;7.67;100.00;98989.00;5114932;28;878;-69
2023/03/10 04:50:10;;;;;;;;;;;;;;;7.67;100.00;98985.47;5114802;28;849;-68
2023/03/10 04:52:37;;;;;;;;;;;;;;;7.78;100.00;98986.97;5114859;28;838;-66
2023/03/10 04:55:04;;;;;;;;;;;;;;;8.08;100.00;98985.56;5114757;28;890;-67
2023/03/10 04:57:30;;;;;;;;;;;;;;;8.35;100.00;98982.22;5114688;28;894;-66
2023/03/10 04:59:56;;;;;;;;;;;;;;;8.58;100.00;98978.88;5113286;28;1200;-66
2023/03/10 05:02:22;;;;;;;;;;;;;;;8.74;100.00;98995.63;5114688;28;827;-67
2023/03/10 05:05:01;;;;;;;;;;;;;;;8.82;100.00;98990.81;5114502;28;849;-68
2023/03/10 05:07:28;;;;;;;;;;;;;;;8.91;100.00;98996.63;5114564;28;909;-67
2023/03/10 05:09:55;;;;;;;;;;;;;;;9.03;100.00;98997.31;5114376;28;1216;-67
2023/03/10 05:12:21;;;;;;;;;;;;;;;9.00;100.00;99007.16;5114361;28;1190;-68
2023/03/10 05:14:50;;;;;;;;;;;;;;;8.96;100.00;99000.91;5114310;28;904;-66
2023/03/10 05:17:17;;;;;;;;;;;;;;;8.95;100.00;98994.59;5114592;28;807;-67
2023/03/10 05:19:45;;;;;;;;;;;;;;;9.01;100.00;98992.19;5112723;28;1298;-66
2023/03/10 05:22:12;;;;;;;;;;;;;;;9.09;100.00;98982.66;5114247;28;838;-67
2023/03/10 05:24:39;;;;;;;;;;;;;;;9.17;100.00;98986.88;5114135;28;815;-68
2023/03/10 05:27:07;;;;;;;;;;;;;;;9.26;100.00;98991.09;5113337;28;1971;-67
2023/03/10 05:29:36;;;;;;;;;;;;;;;9.34;100.00;98992.56;5114085;28;827;-67
2023/03/10 05:32:03;;;;;;;;;;;;;;;9.50;100.00;98998.28;5114293;28;826;-67
2023/03/10 05:34:29;;;;;;;;;;;;;;;9.68;100.00;99008.28;5113966;28;894;-67
2023/03/10 05:36:56;;;;;;;;;;;;;;;9.87;100.00;99015.13;5113859;27;854;-68
2023/03/10 05:39:22;;;;;;;;;;;;;;;10.06;100.00;99022.72;5114101;28;835;-68
2023/03/10 05:41:49;;;;;;;;;;;;;;;10.20;100.00;99021.72;5112473;28;941;-68
2023/03/10 05:44:16;;;;;;;;;;;;;;;10.56;100.00;99038.50;5113748;28;843;-68
2023/03/10 05:46:43;;;;;;;;;;;;;;;10.53;100.00;99039.34;5113548;28;1945;-68
2023/03/10 05:49:10;;;;;;;;;;;;;;;10.42;100.00;99053.34;5113621;28;882;-67
2023/03/10 05:51:38;;;;;;;;;;;;;;;10.37;100.00;99053.03;5113567;28;925;-67
2023/03/10 05:54:08;;;;;;;;;;;;;;;10.31;100.00;99049.97;5113539;28;831;-66
2023/03/10 05:56:34;;;;;;;;;;;;;;;10.39;100.00;99053.38;5113912;28;878;-67
2023/03/10 05:59:01;;;;;;;;;;;;;;;10.42;100.00;99049.78;5113588;27;933;-69
2023/03/10 06:01:32;;;;;;;;;;;;;;;10.51;100.00;99060.31;5113789;28;823;-66
2023/03/10 06:03:59;;;;;;;;;;;;;;;10.60;100.00;99061.34;5113367;28;910;-68
2023/03/10 06:06:27;;;;;;;;;;;;;;;10.71;100.00;99055.63;5113271;28;1917;-68
2023/03/10 06:08:53;;;;;;;;;;;;;;;10.84;100.00;99053.03;5113536;28;920;-68
2023/03/10 06:11:20;;;;;;;;;;;;;;;11.03;100.00;99055.03;5113134;28;1286;-68
2023/03/10 06:13:47;;;;;;;;;;;;;;;11.26;100.00;99049.88;5113176;27;831;-69
2023/03/10 06:16:14;;;;;;;;;;;;;;;11.54;100.00;99041.00;5113148;28;870;-69
2023/03/10 06:18:41;;;;;;;;;;;;;;;11.92;100.00;99042.59;5112918;28;1025;-68
2023/03/10 06:21:09;;;;;;;;;;;;;;;12.26;100.00;99037.41;5113057;28;902;-67
2023/03/10 06:23:36;;;;;;;;;;;;;;;12.65;100.00;99038.47;5112965;28;873;-68
2023/03/10 06:26:10;;;;;;;;;;;;;;;12.99;100.00;99041.94;5112860;28;1963;-69
2023/03/10 06:28:37;;;;;;;;;;;;;;;13.54;100.00;99042.81;5111522;28;1344;-68
2023/03/10 06:31:06;;;;;;;;;;;;;;;13.89;98.87;99043.75;5112800;28;866;-70
2023/03/10 06:33:33;;;;;;;;;;;;;;;13.80;98.48;99054.72;5113042;28;827;-70
2023/03/10 06:36:00;;;;;;;;;;;;;;;13.61;100.00;99061.25;5112676;27;882;-68
2023/03/10 06:38:33;;;;;;;;;;;;;;;13.51;99.90;99059.59;5112066;28;819;-68
2023/03/10 06:41:00;;;;;;;;;;;;;;;13.58;99.56;99065.69;5111277;28;1492;-69
2023/03/10 06:43:27;;;;;;;;;;;;;;;13.62;99.22;99073.94;5113194;28;795;-69
2023/03/10 06:45:54;;;;;;;;;;;;;;;13.84;98.81;99074.06;5112499;28;1941;-68
2023/03/10 06:48:20;;;;;;;;;;;;;;;13.69;98.26;99063.38;5112445;28;839;-67
2023/03/10 06:50:48;;;;;;;;;;;;;;;13.48;99.18;99072.31;5112478;28;846;-67
2023/03/10 06:53:18;;;;;;;;;;;;;;;13.80;98.11;99070.63;5112426;28;810;-68
2023/03/10 06:56:03;;;;;;;;;;;;;;;14.18;96.66;99072.66;5112361;28;989;-67
2023/03/10 06:58:31;;;;;;;;;;;;;;;14.72;94.93;99073.72;5112359;28;818;-69
2023/03/10 07:00:58;;;;;;;;;;;;;;;15.10;90.90;99068.81;5111379;28;1507;-68
2023/03/10 07:03:25;;;;;;;;;;;;;;;15.11;91.88;99064.81;5112210;28;1003;-68
2023/03/10 07:05:51;;;;;;;;;;;;;;;15.18;90.62;99063.78;5112772;28;1885;-68
2023/03/10 07:08:18;;;;;;;;;;;;;;;15.43;90.54;99059.34;5112234;28;914;-68
2023/03/10 07:10:46;;;;;;;;;;;;;;;15.50;90.22;99059.06;5111991;28;1371;-69
2023/03/10 07:13:14;;;;;;;;;;;;;;;15.83;89.14;99062.25;5112851;28;779;-68
2023/03/10 07:15:41;;;;;;;;;;;;;;;16.00;87.07;99060.00;5112395;28;895;-68
2023/03/10 07:18:08;;;;;;;;;;;;;;;16.08;85.96;99057.69;5112603;28;961;-68
2023/03/10 07:20:34;;;;;;;;;;;;;;;16.20;85.46;99048.47;5112525;28;839;-69
2023/03/10 07:23:08;;;;;;;;;;;;;;;16.57;84.18;99054.13;5112750;28;819;-69
2023/03/10 07:25:35;;;;;;;;;;;;;;;16.58;86.12;99066.06;5111974;28;1910;-69
2023/03/10 07:28:04;;;;;;;;;;;;;;;16.84;82.23;99066.63;5111923;28;862;-69
2023/03/10 07:30:32;;;;;;;;;;;;;;;17.10;81.15;99062.28;5111983;28;819;-69
2023/03/10 07:32:57;;;;;;;;;;;;;;;16.99;80.96;99055.63;5111891;28;874;-70
2023/03/10 07:35:25;;;;;;;;;;;;;;;17.23;81.86;99064.16;5111965;28;835;-69
2023/03/10 07:37:51;;;;;;;;;;;;;;;17.67;78.21;99058.97;5110477;28;1450;-69
2023/03/10 07:40:23;;;;;;;;;;;;;;;17.86;80.32;99059.75;5111925;28;843;-70
2023/03/10 07:42:51;;;;;;;;;;;;;;;17.74;76.55;99061.44;5111800;28;905;-70
2023/03/10 07:45:18;;;;;;;;;;;;;;;17.75;76.35;99071.38;5111702;28;1941;-70
2023/03/10 07:47:44;;;;;;;;;;;;;;;17.83;76.60;99062.69;5111927;28;886;-70
2023/03/10 07:50:11;;;;;;;;;;;;;;;18.31;75.50;99071.97;5112773;28;905;-70
2023/03/10 07:52:38;;;;;;;;;;;;;;;18.26;74.86;99067.03;5116037;28;870;-70
2023/03/10 07:55:04;;;;;;;;;;;;;;;17.76;77.18;99066.56;5115997;28;906;-69
2023/03/10 07:57:31;;;;;;;;;;;;;;;17.73;77.46;99068.28;5115880;28;804;-70
2023/03/10 07:59:57;;;;;;;;;;;;;;;17.63;77.91;99069.53;5115762;28;887;-71
2023/03/10 08:02:24;;;;;;;;;;;;;;;17.96;77.26;99071.66;5115740;28;922;-71
2023/03/10 08:04:51;;;;;;;;;;;;;;;17.97;75.51;99078.81;5115642;28;865;-71
2023/03/10 08:07:17;;;;;;;;;;;;;;;17.66;76.68;99073.41;5115586;28;1894;-70
2023/03/10 08:09:52;;;;;;;;;;;;;;;17.58;79.04;99074.97;5115219;28;1177;-69
2023/03/10 08:12:19;;;;;;;;;;;;;;;17.78;78.93;99072.47;5115522;28;831;-70
2023/03/10 08:14:51;;;;;;;;;;;;;;;18.16;78.55;99077.50;5115516;28;870;-70
2023/03/10 08:17:18;;;;;;;;;;;;;;;18.36;76.97;99074.13;5114044;28;1331;-70
2023/03/10 08:19:45;;;;;;;;;;;;;;;18.34;75.46;99081.44;5115610;28;823;-70
2023/03/10 08:22:11;;;;;;;;;;;;;;;18.24;76.46;99086.28;5115598;28;855;-70
2023/03/10 08:24:37;;;;;;;;;;;;;;;18.97;75.81;99067.59;5114280;28;1360;-70
2023/03/10 08:27:04;;;;;;;;;;;;;;;19.29;72.27;99076.38;5115328;28;1983;-70
2023/03/10 08:29:31;;;;;;;;;;;;;;;19.46;72.48;99074.66;5115928;28;819;-71
2023/03/10 08:31:58;;;;;;;;;;;;;;;19.28;68.49;99066.41;5115362;28;906;-71
2023/03/10 08:34:25;;;;;;;;;;;;;;;18.84;70.06;99056.63;5113969;28;1280;-71
2023/03/10 08:36:51;;;;;;;;;;;;;;;18.71;70.28;99058.84;5115115;28;913;-72
2023/03/10 08:39:17;;;;;;;;;;;;;;;18.22;72.52;99055.25;5115023;28;917;-69
2023/03/10 08:41:47;;;;;;;;;;;;;;;18.36;72.61;99059.38;5115256;28;882;-70
2023/03/10 08:44:16;;;;;;;;;;;;;;;18.55;69.39;99058.03;5115280;28;854;-69
2023/03/10 08:46:44;;;;;;;;;;;;;;;18.40;70.89;99053.63;5114778;28;1898;-70
2023/03/10 08:49:11;;;;;;;;;;;;;;;18.71;69.48;99044.84;5113626;28;1493;-70
2023/03/10 08:51:42;;;;;;;;;;;;;;;18.90;68.91;99037.91;5114904;27;815;-70
2023/03/10 08:54:10;;;;;;;;;;;;;;;19.33;68.10;99046.91;5115141;28;827;-72
2023/03/10 08:56:37;;;;;;;;;;;;;;;19.60;66.04;99042.25;5114739;28;819;-72
2023/03/10 08:59:04;;;;;;;;;;;;;;;19.73;64.65;99037.16;5113594;28;879;-73
2023/03/10 09:01:32;;;;;;;;;;;;;;;20.09;65.27;99032.38;5113720;28;854;-73
2023/03/10 09:03:59;;;;;;;;;;;;;;;20.11;62.57;99031.91;5114476;28;878;-71
2023/03/10 09:06:26;;;;;;;;;;;;;;;20.28;61.27;99032.91;5113236;28;1951;-70
2023/03/10 09:08:51;;;;;;;;;;;;;;;20.49;62.04;99030.94;5114793;28;923;-70
2023/03/10 09:11:20;;;;;;;;;;;;;;;20.45;62.16;99033.16;5114143;28;1310;-70
2023/03/10 09:13:47;;;;;;;;;;;;;;;20.40;58.96;99029.03;5114496;28;863;-70
2023/03/10 09:16:14;;;;;;;;;;;;;;;20.56;59.11;99024.88;5114284;28;839;-70
2023/03/10 09:18:40;;;;;;;;;;;;;;;20.46;58.20;99015.06;5114501;28;866;-71
2023/03/10 09:21:09;;;;;;;;;;;;;;;20.19;59.18;99016.97;5114642;28;1042;-70
2023/03/10 09:23:35;;;;;;;;;;;;;;;20.21;59.12;99029.78;5114192;28;906;-70
2023/03/10 09:26:02;;;;;;;;;;;;;;;20.71;57.81;99016.44;5114136;28;1963;-71
2023/03/10 09:28:30;;;;;;;;;;;;;;;21.42;56.48;99007.78;5114120;28;819;-70
2023/03/10 09:30:58;;;;;;;;;;;;;;;20.97;56.79;99008.09;5114034;28;815;-70
2023/03/10 09:33:23;;;;;;;;;;;;;;;21.20;56.02;99005.50;5113953;28;858;-69
2023/03/10 09:35:50;;;;;;;;;;;;;;;21.63;53.29;98994.41;5113954;28;930;-70
2023/03/10 09:38:17;;;;;;;;;;;;;;;21.83;52.80;98990.75;5113883;28;882;-70
2023/03/10 10:09:29;;;;;;;;;;;;;;;20.63;56.74;98964.78;5850326;22;1520;-68
2023/03/10 10:11:56;;;;;;;;;;;;;;;20.59;55.66;98967.81;5092894;28;851;-68
2023/03/10 10:14:24;;;;;;;;;;;;;;;20.59;55.76;98962.19;5092955;28;877;-68
2023/03/10 10:16:53;;;;;;;;;;;;;;;20.42;56.17;98966.81;5092783;28;883;-68
2023/03/10 10:19:22;;;;;;;;;;;;;;;20.53;55.84;98958.50;5092823;28;811;-67
2023/03/10 10:21:56;;;;;;;;;;;;;;;20.66;55.46;98949.00;5092752;28;878;-66
2023/03/10 10:24:22;;;;;;;;;;;;;;;20.61;55.54;98950.44;5092762;28;811;-66
2023/03/10 10:26:49;;;;;;;;;;;;;;;20.80;55.08;98956.53;5092470;28;1973;-66
2023/03/10 10:29:17;;;;;;;;;;;;;;;20.94;54.60;98936.03;5092509;28;898;-66
2023/03/10 10:32:04;;;;;;;;;;;;;;;20.81;54.08;98930.00;5092365;28;893;-66
2023/03/10 10:34:33;;;;;;;;;;;;;;;20.86;54.83;98918.06;5092337;28;1121;-65
2023/03/10 10:36:59;;;;;;;;;;;;;;;20.73;54.43;98920.47;5092480;28;842;-70
2023/03/10 10:39:36;;;;;;;;;;;;;;;20.77;54.68;98929.47;5092394;28;823;-71
2023/03/10 10:42:32;;;;;;;;;;;;;;;20.71;55.35;98926.59;5092310;28;863;-70
2023/03/10 10:45:03;;;;;;;;;;;;;;;20.54;54.56;98919.97;5075221;28;1405;-72
2023/03/10 10:47:33;;;;;;;;;;;;;;;20.49;54.56;98913.03;5092215;28;2042;-72
2023/03/10 10:50:18;;;;;;;;;;;;;;;20.86;54.21;98898.41;5092290;28;867;-72
2023/03/10 10:52:49;;;;;;;;;;;;;;;21.06;55.33;98885.56;5092138;28;799;-73
2023/03/10 10:55:26;;;;;;;;;;;;;;;21.11;54.77;98888.44;5092105;28;1070;-73
2023/03/10 10:57:55;;;;;;;;;;;;;;;21.19;54.05;98886.72;5092119;28;862;-71
2023/03/10 11:00:28;;;;;;;;;;;;;;;21.13;52.93;98885.13;5073888;28;1547;-70
2023/03/10 11:02:54;;;;;;;;;;;;;;;21.08;52.67;98881.00;5091962;28;898;-70
2023/03/10 11:05:22;;;;;;;;;;;;;;;21.20;53.67;98874.19;5073751;28;1902;-69
2023/03/10 11:07:49;;;;;;;;;;;;;;;21.44;53.02;98867.50;5091846;28;935;-68
2023/03/10 11:10:26;;;;;;;;;;;;;;;21.04;52.79;98876.84;5092118;28;1293;-72
2023/03/10 11:13:06;;;;;;;;;;;;;;;21.12;54.48;98872.34;5091800;28;1295;-70
2023/03/10 11:15:37;;;;;;;;;;;;;;;20.97;54.61;98862.03;5091962;28;906;-71
2023/03/10 11:18:08;;;;;;;;;;;;;;;20.72;55.62;98855.13;5091806;28;851;-70
2023/03/10 11:20:51;;;;;;;;;;;;;;;20.91;54.92;98852.75;5091784;28;843;-70
2023/03/10 11:23:36;;;;;;;;;;;;;;;21.06;54.29;98847.03;5091723;28;934;-71
2023/03/10 11:26:11;;;;;;;;;;;;;;;20.61;56.11;98849.38;5073045;28;1977;-72
2023/03/10 11:28:38;;;;;;;;;;;;;;;20.58;55.96;98841.97;5091594;28;851;-70
2023/03/10 11:31:19;;;;;;;;;;;;;;;20.87;56.19;98840.19;5091518;28;896;-71
2023/03/10 11:33:46;;;;;;;;;;;;;;;21.05;55.60;98837.03;5091627;28;836;-70
2023/03/10 11:36:32;;;;;;;;;;;;;;;21.38;55.02;98835.78;5091661;28;891;-70
2023/03/10 11:39:04;;;;;;;;;;;;;;;21.34;54.26;98827.56;5092234;28;800;-70
2023/03/10 11:41:36;;;;;;;;;;;;;;;21.37;54.38;98826.56;5091563;28;838;-70
2023/03/10 11:44:15;;;;;;;;;;;;;;;21.61;53.97;98817.00;5091572;28;914;-70
2023/03/10 11:46:46;;;;;;;;;;;;;;;21.75;53.27;98779.53;5091535;28;1956;-69
2023/03/10 11:49:16;;;;;;;;;;;;;;;21.66;54.41;98795.81;5073236;28;1330;-69
2023/03/10 11:51:50;;;;;;;;;;;;;;;21.58;55.43;98793.50;5091358;28;843;-71
2023/03/10 11:54:21;;;;;;;;;;;;;;;22.00;54.66;98788.31;5091350;28;926;-71
2023/03/10 11:56:49;;;;;;;;;;;;;;;22.27;53.16;98788.94;5091627;28;859;-71
2023/03/10 11:59:20;;;;;;;;;;;;;;;22.15;53.11;98788.88;5073302;28;1404;-70
2023/03/10 12:01:59;;;;;;;;;;;;;;;21.93;52.90;98767.06;5091390;28;804;-69
2023/03/10 12:04:48;;;;;;;;;;;;;;;22.00;53.00;98769.41;5073144;28;1155;-69
2023/03/10 12:07:18;;;;;;;;;;;;;;;21.99;52.92;98759.41;5091246;28;1980;-69
2023/03/10 12:09:47;;;;;;;;;;;;;;;22.12;52.22;98766.59;5091150;28;1345;-69
2023/03/10 12:12:25;;;;;;;;;;;;;;;22.04;52.59;98755.09;5091485;28;917;-67
2023/03/10 12:14:52;;;;;;;;;;;;;;;21.40;54.42;98765.75;5091229;28;870;-69
2023/03/10 12:17:19;;;;;;;;;;;;;;;21.01;55.26;98771.88;5091159;28;872;-69
2023/03/10 12:20:07;;;;;;;;;;;;;;;20.60;57.94;98763.66;5091120;28;882;-69
2023/03/10 12:22:40;;;;;;;;;;;;;;;21.09;57.78;98755.34;5091187;28;839;-69
2023/03/10 12:25:25;;;;;;;;;;;;;;;21.73;55.96;98741.94;5091062;28;898;-69
2023/03/10 12:28:09;;;;;;;;;;;;;;;21.33;55.68;98732.50;5091107;28;910;-69
2023/03/10 12:30:50;;;;;;;;;;;;;;;21.35;56.27;98730.72;5091021;28;902;-69
2023/03/10 12:33:38;;;;;;;;;;;;;;;21.26;56.72;98719.69;5091283;28;914;-69
2023/03/10 12:36:16;;;;;;;;;;;;;;;20.79;57.59;98707.91;5091669;28;878;-69
2023/03/10 12:38:45;;;;;;;;;;;;;;;20.86;57.52;98707.44;5094627;28;894;-69
2023/03/10 12:41:13;;;;;;;;;;;;;;;21.59;56.23;98704.28;5076376;28;1382;-69
2023/03/10 12:43:51;;;;;;;;;;;;;;;21.88;54.87;98705.16;5076420;28;1169;-69
2023/03/10 12:46:37;;;;;;;;;;;;;;;22.42;53.58;98707.84;5094542;28;1952;-69
2023/03/10 12:49:16;;;;;;;;;;;;;;;22.67;51.17;98706.06;5094097;28;1060;-68
2023/03/10 12:52:01;;;;;;;;;;;;;;;22.26;50.51;98700.94;5094408;28;827;-69
2023/03/10 12:54:28;;;;;;;;;;;;;;;22.06;53.38;98693.44;5076163;28;1504;-69
2023/03/10 12:57:08;;;;;;;;;;;;;;;22.19;53.70;98682.47;5094333;28;863;-70
2023/03/10 12:59:39;;;;;;;;;;;;;;;22.46;52.73;98685.84;5094567;28;859;-69
2023/03/10 13:02:26;;;;;;;;;;;;;;;22.49;52.63;98684.81;5094271;28;883;-69
2023/03/10 13:04:56;;;;;;;;;;;;;;;22.44;52.14;98671.50;5093988;28;1234;-69
2023/03/10 13:07:24;;;;;;;;;;;;;;;22.14;53.90;98688.09;5093966;28;1885;-69
2023/03/10 13:09:51;;;;;;;;;;;;;;;21.90;54.85;98678.06;5093994;28;1185;-69
2023/03/10 13:12:26;;;;;;;;;;;;;;;21.84;54.57;98679.34;5094327;28;898;-70
2023/03/10 13:14:57;;;;;;;;;;;;;;;21.79;54.51;98687.25;5094584;28;882;-70
2023/03/10 13:17:26;;;;;;;;;;;;;;;22.19;53.20;98676.06;5093918;28;862;-70
2023/03/10 13:19:58;;;;;;;;;;;;;;;22.98;51.35;98673.22;5093874;28;938;-67
2023/03/10 13:22:24;;;;;;;;;;;;;;;23.43;50.85;98659.03;5093789;28;866;-70
2023/03/10 13:25:17;;;;;;;;;;;;;;;23.13;49.27;98668.13;5094003;28;854;-69
2023/03/10 13:27:43;;;;;;;;;;;;;;;22.92;48.49;98659.16;5090363;28;1009;-69
2023/03/10 13:30:10;;;;;;;;;;;;;;;22.45;49.52;98666.63;5093913;28;875;-69
2023/03/10 13:32:36;;;;;;;;;;;;;;;21.66;51.68;98666.47;5093676;28;866;-69
2023/03/10 13:35:34;;;;;;;;;;;;;;;21.37;53.69;98663.53;5093504;28;878;-71
2023/03/10 13:38:05;;;;;;;;;;;;;;;20.85;55.16;98657.41;5059529;28;1286;-68
2023/03/10 13:40:33;;;;;;;;;;;;;;;20.55;56.00;98647.22;5093630;28;823;-68
2023/03/10 13:43:00;;;;;;;;;;;;;;;20.30;57.16;98651.63;5093506;28;807;-69